sensor_id;sensor_type;location;lat;lon;timestamp;P1;durP1;ratioP1;P2;durP2;ratioP2
15982;SDS011;14442;50.196;8.096;2022-09-21T00:01:08;0.80;;;0.30;;
15982;SDS011;14442;50.196;8.096;2022-09-21T00:03:36;0.40;;;0.37;;
15982;SDS011;14442;50.196;8.096;2022-09-21T00:06:06;2.27;;;0.30;;
15982;SDS011;14442;50.196;8.096;2022-09-21T00:08:34;2.20;;;0.33;;
15982;SDS011;14442;50.196;8.096;2022-09-21T00:11:01;0.40;;;0.40;;
15982;SDS011;14442;50.196;8.096;2022-09-21T00:13:30;1.93;;;0.50;;
15982;SDS011;14442;50.196;8.096;2022-09-21T00:15:57;0.77;;;0.43;;
15982;SDS011;14442;50.196;8.096;2022-09-21T00:18:24;0.97;;;0.50;;
15982;SDS011;14442;50.196;8.096;2022-09-21T00:20:51;0.60;;;0.60;;
15982;SDS011;14442;50.196;8.096;2022-09-21T00:23:18;0.47;;;0.40;;
15982;SDS011;14442;50.196;8.096;2022-09-21T00:25:45;1.73;;;0.73;;
15982;SDS011;14442;50.196;8.096;2022-09-21T00:28:12;0.50;;;0.50;;
15982;SDS011;14442;50.196;8.096;2022-09-21T00:30:40;0.67;;;0.50;;
15982;SDS011;14442;50.196;8.096;2022-09-21T00:33:07;0.30;;;0.30;;
15982;SDS011;14442;50.196;8.096;2022-09-21T00:35:33;0.87;;;0.43;;
15982;SDS011;14442;50.196;8.096;2022-09-21T00:38:00;1.50;;;0.60;;
15982;SDS011;14442;50.196;8.096;2022-09-21T00:40:27;0.50;;;0.47;;
15982;SDS011;14442;50.196;8.096;2022-09-21T00:43:09;2.83;;;0.50;;
15982;SDS011;14442;50.196;8.096;2022-09-21T00:45:37;2.63;;;0.40;;
15982;SDS011;14442;50.196;8.096;2022-09-21T00:48:05;0.77;;;0.43;;
15982;SDS011;14442;50.196;8.096;2022-09-21T00:50:32;0.37;;;0.37;;
15982;SDS011;14442;50.196;8.096;2022-09-21T00:53:00;0.47;;;0.47;;
15982;SDS011;14442;50.196;8.096;2022-09-21T00:55:30;0.53;;;0.40;;
15982;SDS011;14442;50.196;8.096;2022-09-21T00:58:02;0.60;;;0.37;;
15982;SDS011;14442;50.196;8.096;2022-09-21T01:00:33;0.50;;;0.50;;
15982;SDS011;14442;50.196;8.096;2022-09-21T01:03:00;0.50;;;0.50;;
15982;SDS011;14442;50.196;8.096;2022-09-21T01:05:29;1.43;;;0.37;;
15982;SDS011;14442;50.196;8.096;2022-09-21T01:07:55;0.60;;;0.60;;
15982;SDS011;14442;50.196;8.096;2022-09-21T01:10:26;0.73;;;0.30;;
15982;SDS011;14442;50.196;8.096;2022-09-21T01:13:03;0.60;;;0.53;;
15982;SDS011;14442;50.196;8.096;2022-09-21T01:15:41;0.30;;;0.30;;
15982;SDS011;14442;50.196;8.096;2022-09-21T01:18:17;0.40;;;0.40;;
15982;SDS011;14442;50.196;8.096;2022-09-21T01:24:03;0.40;;;0.40;;
15982;SDS011;14442;50.196;8.096;2022-09-21T01:26:56;0.50;;;0.50;;
15982;SDS011;14442;50.196;8.096;2022-09-21T01:29:43;0.43;;;0.43;;
15982;SDS011;14442;50.196;8.096;2022-09-21T01:32:17;0.73;;;0.40;;
15982;SDS011;14442;50.196;8.096;2022-09-21T01:34:48;0.47;;;0.47;;
15982;SDS011;14442;50.196;8.096;2022-09-21T01:37:19;1.80;;;0.40;;
15982;SDS011;14442;50.196;8.096;2022-09-21T01:39:51;0.30;;;0.30;;
15982;SDS011;14442;50.196;8.096;2022-09-21T01:42:21;1.07;;;0.40;;
15982;SDS011;14442;50.196;8.096;2022-09-21T01:44:52;0.50;;;0.43;;
15982;SDS011;14442;50.196;8.096;2022-09-21T01:47:22;0.40;;;0.40;;
15982;SDS011;14442;50.196;8.096;2022-09-21T01:49:51;0.70;;;0.40;;
15982;SDS011;14442;50.196;8.096;2022-09-21T01:52:21;0.53;;;0.37;;
15982;SDS011;14442;50.196;8.096;2022-09-21T01:54:53;0.33;;;0.33;;
15982;SDS011;14442;50.196;8.096;2022-09-21T01:57:25;0.63;;;0.30;;
15982;SDS011;14442;50.196;8.096;2022-09-21T01:59:59;0.30;;;0.30;;
15982;SDS011;14442;50.196;8.096;2022-09-21T02:02:29;0.30;;;0.30;;
15982;SDS011;14442;50.196;8.096;2022-09-21T02:05:02;0.40;;;0.40;;
15982;SDS011;14442;50.196;8.096;2022-09-21T02:07:30;0.20;;;0.20;;
15982;SDS011;14442;50.196;8.096;2022-09-21T02:09:57;0.30;;;0.30;;
15982;SDS011;14442;50.196;8.096;2022-09-21T02:12:26;0.53;;;0.40;;
15982;SDS011;14442;50.196;8.096;2022-09-21T02:14:53;0.30;;;0.30;;
15982;SDS011;14442;50.196;8.096;2022-09-21T02:17:25;0.63;;;0.40;;
15982;SDS011;14442;50.196;8.096;2022-09-21T02:20:02;0.20;;;0.20;;
15982;SDS011;14442;50.196;8.096;2022-09-21T02:22:35;0.40;;;0.30;;
15982;SDS011;14442;50.196;8.096;2022-09-21T02:25:11;0.30;;;0.30;;
15982;SDS011;14442;50.196;8.096;2022-09-21T02:27:43;0.20;;;0.20;;
15982;SDS011;14442;50.196;8.096;2022-09-21T02:30:16;0.47;;;0.30;;
15982;SDS011;14442;50.196;8.096;2022-09-21T02:32:48;0.27;;;0.23;;
15982;SDS011;14442;50.196;8.096;2022-09-21T02:35:22;0.47;;;0.37;;
15982;SDS011;14442;50.196;8.096;2022-09-21T02:37:58;0.30;;;0.30;;
15982;SDS011;14442;50.196;8.096;2022-09-21T02:40:33;0.40;;;0.30;;
15982;SDS011;14442;50.196;8.096;2022-09-21T02:43:05;0.27;;;0.27;;
15982;SDS011;14442;50.196;8.096;2022-09-21T02:45:37;0.10;;;0.10;;
15982;SDS011;14442;50.196;8.096;2022-09-21T02:48:11;0.43;;;0.23;;
15982;SDS011;14442;50.196;8.096;2022-09-21T02:50:42;0.20;;;0.20;;
15982;SDS011;14442;50.196;8.096;2022-09-21T02:53:11;0.30;;;0.30;;
15982;SDS011;14442;50.196;8.096;2022-09-21T02:55:42;0.20;;;0.20;;
15982;SDS011;14442;50.196;8.096;2022-09-21T02:58:11;0.33;;;0.30;;
15982;SDS011;14442;50.196;8.096;2022-09-21T03:00:40;0.20;;;0.20;;
15982;SDS011;14442;50.196;8.096;2022-09-21T03:03:15;0.30;;;0.30;;
15982;SDS011;14442;50.196;8.096;2022-09-21T03:05:42;0.27;;;0.27;;
15982;SDS011;14442;50.196;8.096;2022-09-21T03:08:11;0.20;;;0.20;;
15982;SDS011;14442;50.196;8.096;2022-09-21T03:10:38;0.20;;;0.20;;
15982;SDS011;14442;50.196;8.096;2022-09-21T03:13:04;0.20;;;0.20;;
15982;SDS011;14442;50.196;8.096;2022-09-21T03:15:33;0.30;;;0.30;;
15982;SDS011;14442;50.196;8.096;2022-09-21T03:18:00;0.30;;;0.30;;
15982;SDS011;14442;50.196;8.096;2022-09-21T03:20:30;0.27;;;0.27;;
15982;SDS011;14442;50.196;8.096;2022-09-21T03:22:57;0.20;;;0.20;;
15982;SDS011;14442;50.196;8.096;2022-09-21T03:25:24;0.30;;;0.30;;
15982;SDS011;14442;50.196;8.096;2022-09-21T03:27:51;0.17;;;0.17;;
15982;SDS011;14442;50.196;8.096;2022-09-21T03:30:18;0.30;;;0.20;;
15982;SDS011;14442;50.196;8.096;2022-09-21T03:32:47;0.43;;;0.30;;
15982;SDS011;14442;50.196;8.096;2022-09-21T03:35:14;0.67;;;0.20;;
15982;SDS011;14442;50.196;8.096;2022-09-21T03:37:42;0.30;;;0.30;;
15982;SDS011;14442;50.196;8.096;2022-09-21T03:40:10;0.27;;;0.27;;
15982;SDS011;14442;50.196;8.096;2022-09-21T03:42:37;0.20;;;0.20;;
15982;SDS011;14442;50.196;8.096;2022-09-21T03:45:05;0.20;;;0.10;;
15982;SDS011;14442;50.196;8.096;2022-09-21T03:47:32;0.20;;;0.20;;
15982;SDS011;14442;50.196;8.096;2022-09-21T03:49:59;0.30;;;0.20;;
15982;SDS011;14442;50.196;8.096;2022-09-21T03:52:26;0.20;;;0.20;;
15982;SDS011;14442;50.196;8.096;2022-09-21T03:54:54;0.40;;;0.30;;
15982;SDS011;14442;50.196;8.096;2022-09-21T03:57:20;0.27;;;0.20;;
15982;SDS011;14442;50.196;8.096;2022-09-21T03:59:47;0.20;;;0.20;;
15982;SDS011;14442;50.196;8.096;2022-09-21T04:02:14;0.20;;;0.20;;
15982;SDS011;14442;50.196;8.096;2022-09-21T04:04:41;0.30;;;0.30;;
15982;SDS011;14442;50.196;8.096;2022-09-21T04:07:08;0.30;;;0.30;;
15982;SDS011;14442;50.196;8.096;2022-09-21T04:09:34;0.20;;;0.20;;
15982;SDS011;14442;50.196;8.096;2022-09-21T04:12:02;0.20;;;0.20;;
15982;SDS011;14442;50.196;8.096;2022-09-21T04:14:29;0.23;;;0.23;;
15982;SDS011;14442;50.196;8.096;2022-09-21T04:16:56;0.30;;;0.30;;
15982;SDS011;14442;50.196;8.096;2022-09-21T04:19:23;0.40;;;0.40;;
15982;SDS011;14442;50.196;8.096;2022-09-21T04:21:50;0.20;;;0.20;;
15982;SDS011;14442;50.196;8.096;2022-09-21T04:24:17;0.30;;;0.30;;
15982;SDS011;14442;50.196;8.096;2022-09-21T04:26:44;0.20;;;0.20;;
15982;SDS011;14442;50.196;8.096;2022-09-21T04:29:13;0.30;;;0.30;;
15982;SDS011;14442;50.196;8.096;2022-09-21T04:31:40;0.20;;;0.20;;
15982;SDS011;14442;50.196;8.096;2022-09-21T04:34:07;0.20;;;0.20;;
15982;SDS011;14442;50.196;8.096;2022-09-21T04:36:37;0.30;;;0.30;;
15982;SDS011;14442;50.196;8.096;2022-09-21T04:39:04;0.30;;;0.30;;
15982;SDS011;14442;50.196;8.096;2022-09-21T04:41:31;0.30;;;0.30;;
15982;SDS011;14442;50.196;8.096;2022-09-21T04:43:58;0.20;;;0.20;;
15982;SDS011;14442;50.196;8.096;2022-09-21T04:46:26;0.23;;;0.20;;
15982;SDS011;14442;50.196;8.096;2022-09-21T04:48:53;0.20;;;0.20;;
15982;SDS011;14442;50.196;8.096;2022-09-21T04:51:20;0.37;;;0.37;;
15982;SDS011;14442;50.196;8.096;2022-09-21T04:53:46;0.20;;;0.20;;
15982;SDS011;14442;50.196;8.096;2022-09-21T04:56:13;0.20;;;0.20;;
15982;SDS011;14442;50.196;8.096;2022-09-21T04:58:41;0.40;;;0.30;;
15982;SDS011;14442;50.196;8.096;2022-09-21T05:01:07;0.20;;;0.20;;
15982;SDS011;14442;50.196;8.096;2022-09-21T05:03:37;0.20;;;0.20;;
15982;SDS011;14442;50.196;8.096;2022-09-21T05:06:04;0.20;;;0.20;;
15982;SDS011;14442;50.196;8.096;2022-09-21T05:08:31;0.20;;;0.20;;
15982;SDS011;14442;50.196;8.096;2022-09-21T05:11:16;0.20;;;0.20;;
15982;SDS011;14442;50.196;8.096;2022-09-21T05:13:44;0.20;;;0.13;;
15982;SDS011;14442;50.196;8.096;2022-09-21T05:16:11;0.20;;;0.20;;
15982;SDS011;14442;50.196;8.096;2022-09-21T05:18:39;0.27;;;0.27;;
15982;SDS011;14442;50.196;8.096;2022-09-21T05:21:05;0.20;;;0.20;;
15982;SDS011;14442;50.196;8.096;2022-09-21T05:23:32;0.40;;;0.20;;
15982;SDS011;14442;50.196;8.096;2022-09-21T05:25:59;0.30;;;0.30;;
15982;SDS011;14442;50.196;8.096;2022-09-21T05:28:26;0.30;;;0.30;;
15982;SDS011;14442;50.196;8.096;2022-09-21T05:30:56;0.27;;;0.27;;
15982;SDS011;14442;50.196;8.096;2022-09-21T05:33:27;0.40;;;0.30;;
15982;SDS011;14442;50.196;8.096;2022-09-21T05:36:00;0.10;;;0.10;;
15982;SDS011;14442;50.196;8.096;2022-09-21T05:38:32;0.30;;;0.30;;
15982;SDS011;14442;50.196;8.096;2022-09-21T05:40:59;0.10;;;0.10;;
15982;SDS011;14442;50.196;8.096;2022-09-21T05:43:27;0.20;;;0.20;;
15982;SDS011;14442;50.196;8.096;2022-09-21T05:45:55;0.30;;;0.30;;
15982;SDS011;14442;50.196;8.096;2022-09-21T05:48:27;0.20;;;0.20;;
15982;SDS011;14442;50.196;8.096;2022-09-21T05:51:02;0.20;;;0.20;;
15982;SDS011;14442;50.196;8.096;2022-09-21T05:53:44;0.30;;;0.30;;
15982;SDS011;14442;50.196;8.096;2022-09-21T05:56:20;0.20;;;0.20;;
15982;SDS011;14442;50.196;8.096;2022-09-21T05:58:58;0.20;;;0.20;;
15982;SDS011;14442;50.196;8.096;2022-09-21T06:01:34;0.20;;;0.20;;
15982;SDS011;14442;50.196;8.096;2022-09-21T06:04:07;0.33;;;0.20;;
15982;SDS011;14442;50.196;8.096;2022-09-21T06:06:38;0.20;;;0.20;;
15982;SDS011;14442;50.196;8.096;2022-09-21T06:09:05;0.97;;;0.20;;
15982;SDS011;14442;50.196;8.096;2022-09-21T06:11:32;0.40;;;0.30;;
15982;SDS011;14442;50.196;8.096;2022-09-21T06:13:59;0.30;;;0.30;;
15982;SDS011;14442;50.196;8.096;2022-09-21T06:16:26;0.20;;;0.20;;
15982;SDS011;14442;50.196;8.096;2022-09-21T06:18:52;0.30;;;0.30;;
15982;SDS011;14442;50.196;8.096;2022-09-21T06:21:19;0.20;;;0.20;;
15982;SDS011;14442;50.196;8.096;2022-09-21T06:23:47;0.30;;;0.30;;
15982;SDS011;14442;50.196;8.096;2022-09-21T06:26:14;0.30;;;0.30;;
15982;SDS011;14442;50.196;8.096;2022-09-21T06:28:41;0.47;;;0.20;;
15982;SDS011;14442;50.196;8.096;2022-09-21T06:31:08;0.20;;;0.20;;
15982;SDS011;14442;50.196;8.096;2022-09-21T06:33:34;0.40;;;0.27;;
15982;SDS011;14442;50.196;8.096;2022-09-21T06:36:02;0.30;;;0.20;;
15982;SDS011;14442;50.196;8.096;2022-09-21T06:38:29;0.30;;;0.30;;
15982;SDS011;14442;50.196;8.096;2022-09-21T06:41:00;5.40;;;0.43;;
15982;SDS011;14442;50.196;8.096;2022-09-21T06:43:28;0.33;;;0.33;;
15982;SDS011;14442;50.196;8.096;2022-09-21T06:45:56;0.10;;;0.10;;
15982;SDS011;14442;50.196;8.096;2022-09-21T06:48:24;0.20;;;0.20;;
15982;SDS011;14442;50.196;8.096;2022-09-21T06:50:55;0.30;;;0.30;;
15982;SDS011;14442;50.196;8.096;2022-09-21T06:53:23;0.20;;;0.20;;
15982;SDS011;14442;50.196;8.096;2022-09-21T06:55:50;0.67;;;0.30;;
15982;SDS011;14442;50.196;8.096;2022-09-21T06:58:18;0.20;;;0.20;;
15982;SDS011;14442;50.196;8.096;2022-09-21T07:00:44;0.30;;;0.20;;
15982;SDS011;14442;50.196;8.096;2022-09-21T07:03:11;0.63;;;0.37;;
15982;SDS011;14442;50.196;8.096;2022-09-21T07:05:38;0.30;;;0.30;;
15982;SDS011;14442;50.196;8.096;2022-09-21T07:08:05;3.33;;;0.50;;
15982;SDS011;14442;50.196;8.096;2022-09-21T07:10:31;4.10;;;0.63;;
15982;SDS011;14442;50.196;8.096;2022-09-21T07:13:00;1.20;;;0.70;;
15982;SDS011;14442;50.196;8.096;2022-09-21T07:15:29;4.43;;;0.30;;
15982;SDS011;14442;50.196;8.096;2022-09-21T07:17:56;9.63;;;0.87;;
15982;SDS011;14442;50.196;8.096;2022-09-21T07:20:23;5.53;;;0.80;;
15982;SDS011;14442;50.196;8.096;2022-09-21T07:22:50;4.90;;;0.87;;
15982;SDS011;14442;50.196;8.096;2022-09-21T07:25:17;9.50;;;1.53;;
15982;SDS011;14442;50.196;8.096;2022-09-21T07:27:43;7.43;;;1.00;;
15982;SDS011;14442;50.196;8.096;2022-09-21T07:30:12;3.47;;;0.70;;
15982;SDS011;14442;50.196;8.096;2022-09-21T07:32:40;6.27;;;1.40;;
15982;SDS011;14442;50.196;8.096;2022-09-21T07:35:07;10.97;;;1.00;;
15982;SDS011;14442;50.196;8.096;2022-09-21T07:37:33;8.13;;;1.50;;
15982;SDS011;14442;50.196;8.096;2022-09-21T07:40:00;8.40;;;0.97;;
15982;SDS011;14442;50.196;8.096;2022-09-21T07:42:29;5.77;;;1.00;;
15982;SDS011;14442;50.196;8.096;2022-09-21T07:44:56;6.43;;;1.33;;
15982;SDS011;14442;50.196;8.096;2022-09-21T07:47:23;5.97;;;0.70;;
15982;SDS011;14442;50.196;8.096;2022-09-21T07:49:52;11.13;;;1.57;;
15982;SDS011;14442;50.196;8.096;2022-09-21T07:52:19;11.90;;;1.70;;
15982;SDS011;14442;50.196;8.096;2022-09-21T07:54:46;10.00;;;1.90;;
15982;SDS011;14442;50.196;8.096;2022-09-21T07:57:13;7.27;;;1.30;;
15982;SDS011;14442;50.196;8.096;2022-09-21T07:59:57;9.77;;;1.37;;
15982;SDS011;14442;50.196;8.096;2022-09-21T08:02:23;6.97;;;1.00;;
15982;SDS011;14442;50.196;8.096;2022-09-21T08:04:50;7.20;;;1.10;;
15982;SDS011;14442;50.196;8.096;2022-09-21T08:07:18;5.00;;;1.03;;
15982;SDS011;14442;50.196;8.096;2022-09-21T08:09:45;4.73;;;0.87;;
15982;SDS011;14442;50.196;8.096;2022-09-21T08:12:13;8.60;;;1.10;;
15982;SDS011;14442;50.196;8.096;2022-09-21T08:14:41;4.73;;;1.00;;
15982;SDS011;14442;50.196;8.096;2022-09-21T08:17:08;3.27;;;0.83;;
15982;SDS011;14442;50.196;8.096;2022-09-21T08:19:34;0.87;;;0.40;;
15982;SDS011;14442;50.196;8.096;2022-09-21T08:22:02;5.73;;;0.77;;
15982;SDS011;14442;50.196;8.096;2022-09-21T08:24:30;5.27;;;0.70;;
15982;SDS011;14442;50.196;8.096;2022-09-21T08:26:57;5.63;;;0.80;;
15982;SDS011;14442;50.196;8.096;2022-09-21T08:29:23;2.83;;;0.70;;
15982;SDS011;14442;50.196;8.096;2022-09-21T08:31:50;5.10;;;0.93;;
15982;SDS011;14442;50.196;8.096;2022-09-21T08:34:17;2.47;;;0.43;;
15982;SDS011;14442;50.196;8.096;2022-09-21T08:36:44;2.00;;;0.70;;
15982;SDS011;14442;50.196;8.096;2022-09-21T08:39:12;3.37;;;0.60;;
15982;SDS011;14442;50.196;8.096;2022-09-21T08:41:44;1.47;;;0.40;;
15982;SDS011;14442;50.196;8.096;2022-09-21T08:44:39;4.93;;;0.53;;
15982;SDS011;14442;50.196;8.096;2022-09-21T08:47:09;0.83;;;0.40;;
15982;SDS011;14442;50.196;8.096;2022-09-21T08:49:41;1.77;;;0.57;;
15982;SDS011;14442;50.196;8.096;2022-09-21T08:52:13;4.23;;;0.50;;
15982;SDS011;14442;50.196;8.096;2022-09-21T08:54:45;0.40;;;0.30;;
15982;SDS011;14442;50.196;8.096;2022-09-21T08:57:17;2.33;;;0.50;;
15982;SDS011;14442;50.196;8.096;2022-09-21T08:59:45;2.00;;;0.40;;
15982;SDS011;14442;50.196;8.096;2022-09-21T09:02:20;1.30;;;0.40;;
15982;SDS011;14442;50.196;8.096;2022-09-21T09:05:02;2.83;;;0.60;;
15982;SDS011;14442;50.196;8.096;2022-09-21T09:07:46;4.87;;;0.63;;
15982;SDS011;14442;50.196;8.096;2022-09-21T09:10:35;1.10;;;0.30;;
15982;SDS011;14442;50.196;8.096;2022-09-21T09:13:11;0.77;;;0.50;;
15982;SDS011;14442;50.196;8.096;2022-09-21T09:15:59;2.47;;;0.70;;
15982;SDS011;14442;50.196;8.096;2022-09-21T09:18:37;2.37;;;0.70;;
15982;SDS011;14442;50.196;8.096;2022-09-21T09:21:10;4.50;;;1.00;;
15982;SDS011;14442;50.196;8.096;2022-09-21T09:23:42;2.23;;;0.83;;
15982;SDS011;14442;50.196;8.096;2022-09-21T09:26:14;5.47;;;1.47;;
15982;SDS011;14442;50.196;8.096;2022-09-21T09:28:47;3.93;;;0.70;;
15982;SDS011;14442;50.196;8.096;2022-09-21T09:31:17;8.70;;;0.70;;
15982;SDS011;14442;50.196;8.096;2022-09-21T09:33:47;4.17;;;0.90;;
15982;SDS011;14442;50.196;8.096;2022-09-21T09:36:20;5.30;;;0.83;;
15982;SDS011;14442;50.196;8.096;2022-09-21T09:38:53;5.77;;;0.80;;
15982;SDS011;14442;50.196;8.096;2022-09-21T09:41:27;4.57;;;0.67;;
15982;SDS011;14442;50.196;8.096;2022-09-21T09:44:10;4.97;;;0.80;;
15982;SDS011;14442;50.196;8.096;2022-09-21T09:46:52;3.23;;;0.90;;
15982;SDS011;14442;50.196;8.096;2022-09-21T09:49:29;3.67;;;0.60;;
15982;SDS011;14442;50.196;8.096;2022-09-21T09:52:02;3.53;;;0.77;;
15982;SDS011;14442;50.196;8.096;2022-09-21T09:54:31;3.60;;;0.80;;
15982;SDS011;14442;50.196;8.096;2022-09-21T09:57:02;5.20;;;0.90;;
15982;SDS011;14442;50.196;8.096;2022-09-21T09:59:31;4.67;;;0.70;;
15982;SDS011;14442;50.196;8.096;2022-09-21T10:02:02;3.63;;;0.90;;
15982;SDS011;14442;50.196;8.096;2022-09-21T10:04:31;1.73;;;0.97;;
15982;SDS011;14442;50.196;8.096;2022-09-21T10:06:59;10.50;;;1.40;;
15982;SDS011;14442;50.196;8.096;2022-09-21T10:09:27;3.13;;;0.63;;
15982;SDS011;14442;50.196;8.096;2022-09-21T10:11:56;5.67;;;0.70;;
15982;SDS011;14442;50.196;8.096;2022-09-21T10:14:27;3.23;;;0.77;;
15982;SDS011;14442;50.196;8.096;2022-09-21T10:16:58;9.00;;;0.83;;
15982;SDS011;14442;50.196;8.096;2022-09-21T10:19:30;3.03;;;0.57;;
15982;SDS011;14442;50.196;8.096;2022-09-21T10:21:57;3.70;;;0.83;;
15982;SDS011;14442;50.196;8.096;2022-09-21T10:24:27;2.40;;;0.70;;
15982;SDS011;14442;50.196;8.096;2022-09-21T10:27:01;1.40;;;0.50;;
15982;SDS011;14442;50.196;8.096;2022-09-21T10:29:37;4.70;;;0.70;;
15982;SDS011;14442;50.196;8.096;2022-09-21T10:32:16;1.53;;;0.57;;
15982;SDS011;14442;50.196;8.096;2022-09-21T10:34:58;2.40;;;0.70;;
15982;SDS011;14442;50.196;8.096;2022-09-21T10:37:29;2.67;;;0.73;;
15982;SDS011;14442;50.196;8.096;2022-09-21T10:39:59;1.07;;;0.47;;
15982;SDS011;14442;50.196;8.096;2022-09-21T10:42:25;3.57;;;0.70;;
15982;SDS011;14442;50.196;8.096;2022-09-21T10:45:05;7.33;;;1.20;;
15982;SDS011;14442;50.196;8.096;2022-09-21T10:47:39;4.00;;;1.10;;
15982;SDS011;14442;50.196;8.096;2022-09-21T10:50:19;8.33;;;1.00;;
15982;SDS011;14442;50.196;8.096;2022-09-21T10:52:48;5.80;;;0.80;;
15982;SDS011;14442;50.196;8.096;2022-09-21T10:55:21;2.57;;;0.43;;
15982;SDS011;14442;50.196;8.096;2022-09-21T10:57:49;2.93;;;0.50;;
15982;SDS011;14442;50.196;8.096;2022-09-21T11:00:40;3.77;;;0.70;;
15982;SDS011;14442;50.196;8.096;2022-09-21T11:03:30;7.67;;;1.13;;
15982;SDS011;14442;50.196;8.096;2022-09-21T11:06:07;4.53;;;0.70;;
15982;SDS011;14442;50.196;8.096;2022-09-21T11:08:40;6.73;;;1.10;;
15982;SDS011;14442;50.196;8.096;2022-09-21T11:11:27;4.37;;;0.77;;
15982;SDS011;14442;50.196;8.096;2022-09-21T11:14:06;2.63;;;0.70;;
15982;SDS011;14442;50.196;8.096;2022-09-21T11:16:44;5.37;;;0.50;;
15982;SDS011;14442;50.196;8.096;2022-09-21T11:19:18;1.63;;;0.60;;
15982;SDS011;14442;50.196;8.096;2022-09-21T11:21:51;1.73;;;0.50;;
15982;SDS011;14442;50.196;8.096;2022-09-21T11:24:25;4.50;;;0.47;;
15982;SDS011;14442;50.196;8.096;2022-09-21T11:26:57;2.33;;;0.40;;
15982;SDS011;14442;50.196;8.096;2022-09-21T11:29:32;9.30;;;1.10;;
15982;SDS011;14442;50.196;8.096;2022-09-21T11:32:14;12.20;;;1.80;;
15982;SDS011;14442;50.196;8.096;2022-09-21T11:35:01;10.63;;;1.20;;
15982;SDS011;14442;50.196;8.096;2022-09-21T11:37:49;15.87;;;1.40;;
15982;SDS011;14442;50.196;8.096;2022-09-21T11:40:22;15.37;;;1.63;;
15982;SDS011;14442;50.196;8.096;2022-09-21T11:42:59;14.33;;;1.77;;
15982;SDS011;14442;50.196;8.096;2022-09-21T11:45:43;11.33;;;1.10;;
15982;SDS011;14442;50.196;8.096;2022-09-21T11:48:19;7.00;;;1.40;;
15982;SDS011;14442;50.196;8.096;2022-09-21T11:50:57;8.70;;;1.37;;
15982;SDS011;14442;50.196;8.096;2022-09-21T11:53:39;14.57;;;1.47;;
15982;SDS011;14442;50.196;8.096;2022-09-21T11:56:21;11.40;;;1.50;;
15982;SDS011;14442;50.196;8.096;2022-09-21T11:59:16;18.33;;;1.63;;
15982;SDS011;14442;50.196;8.096;2022-09-21T12:01:58;9.03;;;1.20;;
15982;SDS011;14442;50.196;8.096;2022-09-21T12:04:46;12.47;;;1.20;;
15982;SDS011;14442;50.196;8.096;2022-09-21T12:07:24;11.57;;;1.63;;
15982;SDS011;14442;50.196;8.096;2022-09-21T12:10:03;9.57;;;1.30;;
15982;SDS011;14442;50.196;8.096;2022-09-21T12:12:47;11.17;;;1.27;;
15982;SDS011;14442;50.196;8.096;2022-09-21T12:15:20;9.23;;;1.30;;
15982;SDS011;14442;50.196;8.096;2022-09-21T12:17:52;7.67;;;1.17;;
15982;SDS011;14442;50.196;8.096;2022-09-21T12:20:28;9.63;;;1.07;;
15982;SDS011;14442;50.196;8.096;2022-09-21T12:23:04;8.20;;;1.40;;
15982;SDS011;14442;50.196;8.096;2022-09-21T12:25:38;6.73;;;0.73;;
15982;SDS011;14442;50.196;8.096;2022-09-21T12:28:11;9.33;;;1.10;;
15982;SDS011;14442;50.196;8.096;2022-09-21T12:30:43;6.00;;;0.97;;
15982;SDS011;14442;50.196;8.096;2022-09-21T12:33:15;8.70;;;1.20;;
15982;SDS011;14442;50.196;8.096;2022-09-21T12:35:48;11.33;;;1.33;;
15982;SDS011;14442;50.196;8.096;2022-09-21T12:38:20;7.00;;;0.93;;
15982;SDS011;14442;50.196;8.096;2022-09-21T12:40:52;4.10;;;0.83;;
15982;SDS011;14442;50.196;8.096;2022-09-21T12:43:27;5.80;;;0.60;;
15982;SDS011;14442;50.196;8.096;2022-09-21T12:46:00;6.97;;;0.80;;
15982;SDS011;14442;50.196;8.096;2022-09-21T12:48:31;5.43;;;0.83;;
15982;SDS011;14442;50.196;8.096;2022-09-21T12:51:00;6.07;;;0.70;;
15982;SDS011;14442;50.196;8.096;2022-09-21T12:53:31;3.90;;;0.60;;
15982;SDS011;14442;50.196;8.096;2022-09-21T12:56:03;10.03;;;0.77;;
15982;SDS011;14442;50.196;8.096;2022-09-21T13:01:29;2.57;;;0.67;;
15982;SDS011;14442;50.196;8.096;2022-09-21T13:04:08;4.33;;;0.80;;
15982;SDS011;14442;50.196;8.096;2022-09-21T13:09:56;6.27;;;1.10;;
15982;SDS011;14442;50.196;8.096;2022-09-21T13:12:26;4.73;;;0.70;;
15982;SDS011;14442;50.196;8.096;2022-09-21T13:15:00;5.40;;;0.50;;
15982;SDS011;14442;50.196;8.096;2022-09-21T13:17:29;4.03;;;0.73;;
15982;SDS011;14442;50.196;8.096;2022-09-21T13:19:57;6.30;;;0.77;;
15982;SDS011;14442;50.196;8.096;2022-09-21T13:22:30;3.53;;;0.60;;
15982;SDS011;14442;50.196;8.096;2022-09-21T13:24:59;3.53;;;0.50;;
15982;SDS011;14442;50.196;8.096;2022-09-21T13:30:34;4.03;;;0.70;;
15982;SDS011;14442;50.196;8.096;2022-09-21T13:33:04;4.17;;;0.73;;
15982;SDS011;14442;50.196;8.096;2022-09-21T13:35:52;4.33;;;0.37;;
15982;SDS011;14442;50.196;8.096;2022-09-21T13:38:29;2.40;;;0.40;;
15982;SDS011;14442;50.196;8.096;2022-09-21T13:41:01;3.80;;;0.53;;
15982;SDS011;14442;50.196;8.096;2022-09-21T13:46:46;1.80;;;0.40;;
15982;SDS011;14442;50.196;8.096;2022-09-21T13:49:17;2.63;;;0.40;;
15982;SDS011;14442;50.196;8.096;2022-09-21T13:52:01;1.23;;;0.50;;
15982;SDS011;14442;50.196;8.096;2022-09-21T13:54:33;2.50;;;0.20;;
15982;SDS011;14442;50.196;8.096;2022-09-21T13:57:06;2.00;;;0.40;;
15982;SDS011;14442;50.196;8.096;2022-09-21T13:59:43;1.77;;;0.20;;
15982;SDS011;14442;50.196;8.096;2022-09-21T14:02:21;2.40;;;0.60;;
15982;SDS011;14442;50.196;8.096;2022-09-21T14:04:55;1.80;;;0.30;;
15982;SDS011;14442;50.196;8.096;2022-09-21T14:07:27;1.97;;;0.20;;
15982;SDS011;14442;50.196;8.096;2022-09-21T14:09:57;1.10;;;0.30;;
15982;SDS011;14442;50.196;8.096;2022-09-21T14:12:26;1.10;;;0.23;;
15982;SDS011;14442;50.196;8.096;2022-09-21T14:21:09;0.63;;;0.20;;
15982;SDS011;14442;50.196;8.096;2022-09-21T14:27:03;1.13;;;0.20;;
15982;SDS011;14442;50.196;8.096;2022-09-21T14:29:40;2.10;;;0.13;;
15982;SDS011;14442;50.196;8.096;2022-09-21T14:32:12;0.30;;;0.10;;
15982;SDS011;14442;50.196;8.096;2022-09-21T14:34:43;2.93;;;0.30;;
15982;SDS011;14442;50.196;8.096;2022-09-21T14:37:15;2.63;;;0.27;;
15982;SDS011;14442;50.196;8.096;2022-09-21T14:39:56;3.00;;;0.30;;
15982;SDS011;14442;50.196;8.096;2022-09-21T14:42:29;1.00;;;0.20;;
15982;SDS011;14442;50.196;8.096;2022-09-21T14:44:57;0.77;;;0.20;;
15982;SDS011;14442;50.196;8.096;2022-09-21T14:47:29;0.90;;;0.30;;
15982;SDS011;14442;50.196;8.096;2022-09-21T14:50:16;1.40;;;0.33;;
15982;SDS011;14442;50.196;8.096;2022-09-21T14:52:58;4.77;;;0.30;;
15982;SDS011;14442;50.196;8.096;2022-09-21T14:55:38;1.83;;;0.30;;
15982;SDS011;14442;50.196;8.096;2022-09-21T14:58:22;0.60;;;0.20;;
15982;SDS011;14442;50.196;8.096;2022-09-21T15:00:56;1.17;;;0.20;;
15982;SDS011;14442;50.196;8.096;2022-09-21T15:03:50;1.17;;;0.20;;
15982;SDS011;14442;50.196;8.096;2022-09-21T15:06:29;3.60;;;0.20;;
15982;SDS011;14442;50.196;8.096;2022-09-21T15:09:29;1.90;;;0.30;;
15982;SDS011;14442;50.196;8.096;2022-09-21T15:12:27;6.87;;;0.40;;
15982;SDS011;14442;50.196;8.096;2022-09-21T15:15:08;3.03;;;0.50;;
15982;SDS011;14442;50.196;8.096;2022-09-21T15:17:49;0.93;;;0.20;;
15982;SDS011;14442;50.196;8.096;2022-09-21T15:20:21;2.00;;;0.30;;
15982;SDS011;14442;50.196;8.096;2022-09-21T15:22:48;0.27;;;0.20;;
15982;SDS011;14442;50.196;8.096;2022-09-21T15:25:20;0.30;;;0.20;;
15982;SDS011;14442;50.196;8.096;2022-09-21T15:27:48;0.40;;;0.20;;
15982;SDS011;14442;50.196;8.096;2022-09-21T15:30:21;0.43;;;0.20;;
15982;SDS011;14442;50.196;8.096;2022-09-21T15:32:51;1.63;;;0.37;;
15982;SDS011;14442;50.196;8.096;2022-09-21T15:35:20;1.27;;;0.30;;
15982;SDS011;14442;50.196;8.096;2022-09-21T15:37:48;1.50;;;0.20;;
15982;SDS011;14442;50.196;8.096;2022-09-21T15:40:17;1.03;;;0.20;;